createdAt,value
2019-04-25T00:00:05.444Z,983.83
2019-04-25T00:01:05.446Z,983.78
2019-04-25T00:02:05.496Z,983.82
2019-04-25T00:03:05.453Z,983.82
2019-04-25T00:04:05.433Z,983.82
2019-04-25T00:05:05.418Z,983.85
2019-04-25T00:06:05.418Z,983.92
2019-04-25T00:07:05.472Z,983.92
2019-04-25T00:08:05.444Z,983.94
2019-04-25T00:09:05.420Z,983.96
2019-04-25T00:10:05.393Z,983.93
2019-04-25T00:11:05.381Z,983.93
2019-04-25T00:12:05.501Z,983.89
2019-04-25T00:13:05.541Z,983.86
2019-04-25T00:14:05.377Z,983.86
2019-04-25T00:15:05.390Z,983.86
2019-04-25T00:16:05.382Z,983.83
2019-04-25T00:17:05.468Z,983.83
2019-04-25T00:18:05.379Z,983.8
2019-04-25T00:19:05.386Z,983.82
2019-04-25T00:20:05.380Z,983.82
2019-04-25T00:21:05.357Z,983.86
2019-04-25T00:22:05.441Z,983.88
2019-04-25T00:23:05.343Z,983.85
2019-04-25T00:24:05.326Z,983.89
2019-04-25T00:25:14.906Z,983.86
2019-04-25T00:26:05.327Z,983.86
2019-04-25T00:27:05.372Z,983.88
2019-04-25T00:28:05.328Z,983.82
2019-04-25T00:29:05.303Z,983.79
2019-04-25T00:30:05.291Z,983.77
2019-04-25T00:31:05.305Z,983.77
2019-04-25T00:32:05.342Z,983.76
2019-04-25T00:33:05.275Z,983.72
2019-04-25T00:34:05.266Z,983.72
2019-04-25T00:35:05.279Z,983.73
2019-04-25T00:36:05.266Z,983.74
2019-04-25T00:37:05.317Z,983.78
2019-04-25T00:38:05.248Z,983.77
2019-04-25T00:39:05.240Z,983.77
2019-04-25T00:40:05.236Z,983.79
2019-04-25T00:41:05.230Z,983.8
2019-04-25T00:42:05.292Z,983.82
2019-04-25T00:43:05.220Z,983.83
2019-04-25T00:44:05.223Z,983.85
2019-04-25T00:45:05.209Z,983.87
2019-04-25T00:46:05.204Z,983.94
2019-04-25T00:47:05.251Z,983.91
2019-04-25T00:48:05.194Z,983.88
2019-04-25T00:49:05.189Z,983.84
2019-04-25T00:50:05.184Z,983.83
2019-04-25T00:51:05.178Z,983.84
2019-04-25T00:52:05.336Z,983.84
2019-04-25T00:53:05.212Z,983.82
2019-04-25T00:54:05.173Z,983.81
2019-04-25T00:55:05.161Z,983.76
2019-04-25T00:56:05.158Z,983.76
2019-04-25T00:57:05.205Z,983.72
2019-04-25T00:58:05.149Z,983.79
2019-04-25T00:59:05.143Z,983.81
2019-04-25T01:00:05.141Z,983.81
2019-04-25T01:01:05.135Z,983.87
2019-04-25T01:02:07.528Z,983.83
2019-04-25T01:03:05.124Z,983.84
2019-04-25T01:04:05.137Z,983.83
2019-04-25T01:05:05.115Z,983.89
2019-04-25T01:06:05.110Z,983.88
2019-04-25T01:07:05.257Z,983.89
2019-04-25T01:08:05.101Z,983.92
2019-04-25T01:09:05.096Z,983.89
2019-04-25T01:10:05.095Z,983.88
2019-04-25T01:11:05.096Z,983.91
2019-04-25T01:12:05.192Z,983.9
2019-04-25T01:13:05.086Z,983.91
2019-04-25T01:14:05.075Z,983.89
2019-04-25T01:15:05.070Z,983.88
2019-04-25T01:16:05.065Z,983.89
2019-04-25T01:17:05.125Z,983.91
2019-04-25T01:18:05.055Z,983.95
2019-04-25T01:19:05.053Z,983.92
2019-04-25T01:20:05.048Z,983.94
2019-04-25T01:21:05.043Z,983.94
2019-04-25T01:22:05.038Z,983.95
2019-04-25T01:23:05.127Z,983.93
2019-04-25T01:24:05.029Z,983.95
2019-04-25T01:25:05.032Z,983.98
2019-04-25T01:26:05.017Z,984
2019-04-25T01:27:05.348Z,984.01
2019-04-25T01:28:05.006Z,984.01
2019-04-25T01:29:05.004Z,984
2019-04-25T01:30:06.097Z,984.01
2019-04-25T01:31:04.996Z,984.04
2019-04-25T01:32:04.997Z,984.03
2019-04-25T01:33:04.995Z,984.05
2019-04-25T01:34:04.984Z,984.07
2019-04-25T01:35:04.974Z,984.02
2019-04-25T01:36:04.971Z,984.07
2019-04-25T01:37:04.968Z,984.11
2019-04-25T01:38:04.961Z,984.06
2019-04-25T01:39:04.957Z,983.98
2019-04-25T01:40:04.952Z,983.93
2019-04-25T01:41:04.950Z,983.98
2019-04-25T01:42:05.262Z,983.96
2019-04-25T01:43:04.940Z,983.92
2019-04-25T01:44:04.930Z,984.01
2019-04-25T01:45:04.929Z,984.04
2019-04-25T01:46:04.924Z,984.06
2019-04-25T01:47:04.922Z,984.11
2019-04-25T01:48:04.919Z,984.15
2019-04-25T01:49:04.907Z,984.16
2019-04-25T01:50:04.906Z,984.23
2019-04-25T01:51:04.904Z,984.23
2019-04-25T01:52:04.893Z,984.27
2019-04-25T01:53:04.899Z,984.22
2019-04-25T01:54:04.889Z,984.21
2019-04-25T01:55:05.530Z,984.23
2019-04-25T01:56:07.560Z,984.16
2019-04-25T01:57:04.867Z,984.15
2019-04-25T01:58:04.870Z,984.11
2019-04-25T01:59:04.868Z,984.08
2019-04-25T02:00:04.857Z,984.05
2019-04-25T02:01:04.849Z,984.06
2019-04-25T02:02:06.652Z,984.08
2019-04-25T02:03:04.879Z,984.11
2019-04-25T02:04:04.838Z,984.21
2019-04-25T02:05:05.147Z,984.24
2019-04-25T02:06:05.087Z,984.24
2019-04-25T02:07:04.818Z,984.26
2019-04-25T02:08:06.868Z,984.35
2019-04-25T02:09:05.266Z,984.31
2019-04-25T02:10:04.811Z,984.3
2019-04-25T02:11:04.814Z,984.34
2019-04-25T02:12:04.927Z,984.32
2019-04-25T02:13:04.792Z,984.32
2019-04-25T02:14:05.173Z,984.35
2019-04-25T02:15:06.126Z,984.3
2019-04-25T02:16:05.273Z,984.29
2019-04-25T02:17:04.768Z,984.29
2019-04-25T02:18:04.766Z,984.31
2019-04-25T02:19:04.759Z,984.3
2019-04-25T02:20:04.755Z,984.34
2019-04-25T02:21:04.751Z,984.38
2019-04-25T02:22:04.748Z,984.37
2019-04-25T02:23:04.741Z,984.42
2019-04-25T02:24:05.639Z,984.38
2019-04-25T02:25:04.740Z,984.39
2019-04-25T02:26:15.126Z,984.41
2019-04-25T02:27:04.812Z,984.45
2019-04-25T02:28:05.651Z,984.49
2019-04-25T02:29:04.792Z,984.49
2019-04-25T02:30:06.835Z,984.46
2019-04-25T02:31:08.520Z,984.52
2019-04-25T02:32:08.708Z,984.53
2019-04-25T02:33:08.538Z,984.48
2019-04-25T02:34:08.305Z,984.48
2019-04-25T02:35:09.044Z,984.47
2019-04-25T02:36:08.512Z,984.49
2019-04-25T02:37:09.021Z,984.52
2019-04-25T02:38:08.616Z,984.53
2019-04-25T02:39:08.789Z,984.48
2019-04-25T02:40:07.640Z,984.48
2019-04-25T02:41:07.022Z,984.48
2019-04-25T02:42:07.834Z,984.45
2019-04-25T02:43:07.896Z,984.44
2019-04-25T02:44:08.408Z,984.44
2019-04-25T02:45:08.142Z,984.42
2019-04-25T02:46:07.397Z,984.51
2019-04-25T02:47:07.909Z,984.55
2019-04-25T02:48:05.604Z,984.54
2019-04-25T02:49:08.788Z,984.51
2019-04-25T02:50:07.466Z,984.49
2019-04-25T02:51:06.232Z,984.47
2019-04-25T02:52:07.376Z,984.48
2019-04-25T02:53:05.986Z,984.5
2019-04-25T02:54:07.603Z,984.5
2019-04-25T02:55:08.915Z,984.43
2019-04-25T02:56:08.307Z,984.42
2019-04-25T02:57:06.921Z,984.41
2019-04-25T02:58:05.596Z,984.37
2019-04-25T02:59:06.945Z,984.36
2019-04-25T03:00:07.260Z,984.35
2019-04-25T03:01:16.130Z,984.35
2019-04-25T03:02:05.629Z,984.34
2019-04-25T03:03:06.869Z,984.35
2019-04-25T03:04:05.707Z,984.34
2019-04-25T03:05:07.767Z,984.41
2019-04-25T03:06:07.125Z,984.4
2019-04-25T03:07:07.985Z,984.43
2019-04-25T03:08:08.075Z,984.45
2019-04-25T03:09:06.398Z,984.42
2019-04-25T03:10:07.669Z,984.47
2019-04-25T03:11:06.077Z,984.44
2019-04-25T03:12:06.386Z,984.48
2019-04-25T03:13:08.207Z,984.49
2019-04-25T03:14:06.212Z,984.52
2019-04-25T03:15:06.971Z,984.51
2019-04-25T03:16:07.487Z,984.5
2019-04-25T03:17:06.173Z,984.49
2019-04-25T03:18:05.577Z,984.54
2019-04-25T03:19:06.044Z,984.53
2019-04-25T03:20:07.890Z,984.51
2019-04-25T03:21:06.081Z,984.52
2019-04-25T03:22:08.254Z,984.5
2019-04-25T03:23:06.931Z,984.51
2019-04-25T03:24:06.117Z,984.49
2019-04-25T03:25:06.933Z,984.47
2019-04-25T03:26:05.077Z,984.44
2019-04-25T03:27:05.143Z,984.45
2019-04-25T03:28:05.226Z,984.46
2019-04-25T03:29:05.198Z,984.47
2019-04-25T03:30:08.698Z,984.46
2019-04-25T03:31:09.223Z,984.5
2019-04-25T03:32:09.224Z,984.51
2019-04-25T03:33:09.392Z,984.49
2019-04-25T03:34:09.337Z,984.49
2019-04-25T03:35:05.561Z,984.5
2019-04-25T03:36:05.450Z,984.51
2019-04-25T03:37:05.552Z,984.53
2019-04-25T03:38:05.388Z,984.54
2019-04-25T03:39:05.290Z,984.56
2019-04-25T03:40:05.551Z,984.56
2019-04-25T03:41:04.856Z,984.61
2019-04-25T03:42:05.358Z,984.56
2019-04-25T03:43:05.017Z,984.59
2019-04-25T03:44:05.389Z,984.6
2019-04-25T03:45:04.987Z,984.59
2019-04-25T03:46:05.606Z,984.6
2019-04-25T03:47:06.381Z,984.66
2019-04-25T03:48:05.561Z,984.72
2019-04-25T03:49:05.271Z,984.68
2019-04-25T03:50:05.825Z,984.63
2019-04-25T03:51:05.448Z,984.63
2019-04-25T03:52:05.250Z,984.64
2019-04-25T03:53:05.428Z,984.7
2019-04-25T03:54:07.163Z,984.73
2019-04-25T03:55:05.023Z,984.7
2019-04-25T03:56:05.809Z,984.64
2019-04-25T03:57:05.145Z,984.58
2019-04-25T03:58:05.136Z,984.58
2019-04-25T03:59:05.122Z,984.58
2019-04-25T04:00:06.168Z,984.55
2019-04-25T04:01:06.903Z,984.5
2019-04-25T04:02:05.869Z,984.49
2019-04-25T04:03:06.431Z,984.44
2019-04-25T04:04:05.652Z,984.38
2019-04-25T04:05:05.913Z,984.44
2019-04-25T04:06:06.156Z,984.37
2019-04-25T04:07:07.257Z,984.34
2019-04-25T04:08:05.259Z,984.29
2019-04-25T04:09:05.483Z,984.23
2019-04-25T04:10:05.346Z,984.28
2019-04-25T04:11:06.274Z,984.27
2019-04-25T04:12:05.139Z,984.24
2019-04-25T04:13:05.151Z,984.19
2019-04-25T04:14:05.747Z,984.16
2019-04-25T04:15:05.584Z,984.14
2019-04-25T04:16:05.141Z,984.08
2019-04-25T04:17:06.265Z,984.03
2019-04-25T04:18:05.922Z,983.99
2019-04-25T04:19:05.681Z,983.96
2019-04-25T04:20:05.582Z,983.86
2019-04-25T04:21:05.340Z,983.83
2019-04-25T04:22:05.374Z,983.83
2019-04-25T04:23:05.569Z,983.86
2019-04-25T04:24:04.153Z,983.91
2019-04-25T04:25:04.138Z,983.98
2019-04-25T04:26:04.130Z,984
2019-04-25T04:27:05.916Z,984.04
2019-04-25T04:28:04.112Z,983.99
2019-04-25T04:29:04.688Z,984.02
2019-04-25T04:30:04.255Z,984.06
2019-04-25T04:31:04.097Z,984.12
2019-04-25T04:32:04.111Z,984.16
2019-04-25T04:33:04.100Z,984.21
2019-04-25T04:34:04.104Z,984.28
2019-04-25T04:35:04.073Z,984.35
2019-04-25T04:36:04.071Z,984.37
2019-04-25T04:37:04.065Z,984.39
2019-04-25T04:38:04.287Z,984.39
2019-04-25T04:39:04.056Z,984.41
2019-04-25T04:40:04.050Z,984.46
2019-04-25T04:41:04.069Z,984.43
2019-04-25T04:42:04.043Z,984.49
2019-04-25T04:43:04.409Z,984.5
2019-04-25T04:44:04.212Z,984.55
2019-04-25T04:45:04.022Z,984.55
2019-04-25T04:46:04.079Z,984.52
2019-04-25T04:47:04.190Z,984.54
2019-04-25T04:48:04.009Z,984.52
2019-04-25T04:49:04.042Z,984.48
2019-04-25T04:50:04.054Z,984.52
2019-04-25T04:51:04.048Z,984.55
2019-04-25T04:52:04.472Z,984.6
2019-04-25T04:53:03.991Z,984.6
2019-04-25T04:54:03.989Z,984.58
2019-04-25T04:55:08.289Z,984.6
2019-04-25T04:56:04.267Z,984.56
2019-04-25T04:57:16.353Z,984.56
2019-04-25T04:58:04.292Z,984.5
2019-04-25T04:59:03.977Z,984.58
2019-04-25T05:00:03.987Z,984.51
2019-04-25T05:01:03.971Z,984.52
2019-04-25T05:02:03.968Z,984.5
2019-04-25T05:03:04.450Z,984.49
2019-04-25T05:04:04.055Z,984.42
2019-04-25T05:05:03.981Z,984.38
2019-04-25T05:06:03.968Z,984.41
2019-04-25T05:07:03.967Z,984.4
2019-04-25T05:08:03.965Z,984.38
2019-04-25T05:09:04.120Z,984.34
2019-04-25T05:10:03.964Z,984.33
2019-04-25T05:11:04.080Z,984.33
2019-04-25T05:12:04.148Z,984.32
2019-04-25T05:13:04.348Z,984.31
2019-04-25T05:14:04.074Z,984.18
2019-04-25T05:15:03.975Z,984.09
2019-04-25T05:16:03.968Z,984.24
2019-04-25T05:17:04.371Z,984.21
2019-04-25T05:18:04.124Z,984.26
2019-04-25T05:19:04.016Z,984.29
2019-04-25T05:20:03.969Z,984.27
2019-04-25T05:21:04.267Z,984.32
2019-04-25T05:22:03.969Z,984.29
2019-04-25T05:23:03.967Z,984.25
2019-04-25T05:24:04.169Z,984.2
2019-04-25T05:25:04.019Z,984.18
2019-04-25T05:26:04.404Z,984.1
2019-04-25T05:27:03.971Z,984.24
2019-04-25T05:28:05.276Z,984.21
2019-04-25T05:29:03.972Z,984.17
2019-04-25T05:30:04.072Z,984.14
2019-04-25T05:31:03.971Z,984.16
2019-04-25T05:32:04.283Z,984.14
2019-04-25T05:33:04.073Z,984.11
2019-04-25T05:34:04.038Z,984.14
2019-04-25T05:35:03.971Z,984.3
2019-04-25T05:36:05.836Z,984.17
2019-04-25T05:37:03.976Z,984.15
2019-04-25T05:38:03.968Z,984.19
2019-04-25T05:39:04.089Z,984.26
2019-04-25T05:40:05.590Z,984.29
2019-04-25T05:41:04.110Z,984.29
2019-04-25T05:42:04.334Z,984.29
2019-04-25T05:43:03.966Z,984.23
2019-04-25T05:44:04.507Z,984.24
2019-04-25T05:45:04.481Z,984.22
2019-04-25T05:46:03.974Z,984.17
2019-04-25T05:47:04.185Z,984.16
2019-04-25T05:48:05.846Z,984.23
2019-04-25T05:49:05.190Z,984.34
2019-04-25T05:50:04.181Z,984.21
2019-04-25T05:51:04.054Z,984.14
2019-04-25T05:52:04.136Z,984.18
2019-04-25T05:53:04.334Z,984.17
2019-04-25T05:54:04.189Z,984.19
2019-04-25T05:55:04.044Z,984.18
2019-04-25T05:56:04.228Z,984.14
2019-04-25T05:57:03.983Z,984.19
2019-04-25T05:58:04.082Z,984.2
2019-04-25T05:59:05.434Z,984.18
2019-04-25T06:00:03.984Z,984.2
2019-04-25T06:01:03.999Z,984.21
2019-04-25T06:02:04.013Z,984.23
2019-04-25T06:03:03.985Z,984.21
2019-04-25T06:04:05.351Z,984.29
2019-04-25T06:05:03.982Z,984.29
2019-04-25T06:06:03.985Z,984.25
2019-04-25T06:07:05.652Z,984.33
2019-04-25T06:08:04.409Z,984.33
2019-04-25T06:09:04.182Z,984.36
2019-04-25T06:10:04.128Z,984.35
2019-04-25T06:11:04.132Z,984.34
2019-04-25T06:12:04.722Z,984.32
2019-04-25T06:13:03.967Z,984.32
2019-04-25T06:14:03.968Z,984.37
2019-04-25T06:15:03.961Z,984.34
2019-04-25T06:16:03.961Z,984.33
2019-04-25T06:17:03.958Z,984.29
2019-04-25T06:18:03.977Z,984.31
2019-04-25T06:19:13.239Z,984.33
2019-04-25T06:20:06.089Z,984.22
2019-04-25T06:21:03.957Z,984.24
2019-04-25T06:22:03.957Z,984.23
2019-04-25T06:23:03.957Z,984.25
2019-04-25T06:24:04.330Z,984.23
2019-04-25T06:25:05.537Z,984.23
2019-04-25T06:26:16.781Z,984.28
2019-04-25T06:27:03.965Z,984.27
2019-04-25T06:28:03.966Z,984.22
2019-04-25T06:29:03.971Z,984.24
2019-04-25T06:30:04.440Z,984.29
2019-04-25T06:31:04.461Z,984.23
2019-04-25T06:32:07.988Z,984.21
2019-04-25T06:33:03.986Z,984.15
2019-04-25T06:34:04.522Z,984.12
2019-04-25T06:35:04.845Z,984.11
2019-04-25T06:36:04.189Z,984.12
2019-04-25T06:37:04.718Z,984.09
2019-04-25T06:38:04.004Z,984.11
2019-04-25T06:39:04.168Z,984.08
2019-04-25T06:40:05.086Z,984.08
2019-04-25T06:41:04.017Z,984.06
2019-04-25T06:42:04.087Z,984.04
2019-04-25T06:43:04.036Z,984
2019-04-25T06:44:04.110Z,983.96
2019-04-25T06:45:04.033Z,983.99
2019-04-25T06:46:04.039Z,983.97
2019-04-25T06:47:04.044Z,983.95
2019-04-25T06:48:04.065Z,983.95
2019-04-25T06:49:04.064Z,983.93
2019-04-25T06:50:04.309Z,983.95
2019-04-25T06:51:04.070Z,983.93
2019-04-25T06:52:04.229Z,983.91
2019-04-25T06:53:05.197Z,983.88
2019-04-25T06:54:04.084Z,983.86
2019-04-25T06:55:04.101Z,983.82
2019-04-25T06:56:04.097Z,983.81
2019-04-25T06:57:04.500Z,983.86
2019-04-25T06:58:11.485Z,983.83
2019-04-25T06:59:04.113Z,983.86
2019-04-25T07:00:04.497Z,983.85
2019-04-25T07:01:04.125Z,983.83
2019-04-25T07:02:04.321Z,983.85
2019-04-25T07:03:04.359Z,983.8
2019-04-25T07:04:04.159Z,983.74
2019-04-25T07:05:04.148Z,983.76
2019-04-25T07:06:04.157Z,983.75
2019-04-25T07:07:11.819Z,983.76
2019-04-25T07:08:04.167Z,983.8
2019-04-25T07:09:04.178Z,983.76
2019-04-25T07:10:04.209Z,983.74
2019-04-25T07:11:04.185Z,983.7
2019-04-25T07:12:04.199Z,983.67
2019-04-25T07:13:04.329Z,983.66
2019-04-25T07:14:04.266Z,983.57
2019-04-25T07:15:04.213Z,983.58
2019-04-25T07:16:04.668Z,983.61
2019-04-25T07:17:04.411Z,983.63
2019-04-25T07:18:04.235Z,983.62
2019-04-25T07:19:04.574Z,983.65
2019-04-25T07:20:04.246Z,983.6
2019-04-25T07:21:04.252Z,983.63
2019-04-25T07:22:04.257Z,983.6
2019-04-25T07:23:04.259Z,983.58
2019-04-25T07:24:04.269Z,983.61
2019-04-25T07:25:04.277Z,983.56
2019-04-25T07:26:04.278Z,983.56
2019-04-25T07:27:04.285Z,983.55
2019-04-25T07:28:04.290Z,983.5
2019-04-25T07:29:05.341Z,983.45
2019-04-25T07:30:04.303Z,983.39
2019-04-25T07:31:04.308Z,983.35
2019-04-25T07:32:05.939Z,983.37
2019-04-25T07:33:04.319Z,983.39
2019-04-25T07:34:04.324Z,983.33
2019-04-25T07:35:04.332Z,983.35
2019-04-25T07:36:04.372Z,983.38
2019-04-25T07:37:04.342Z,983.4
2019-04-25T07:38:04.344Z,983.3
2019-04-25T07:39:08.019Z,983.31
2019-04-25T07:40:04.352Z,983.26
2019-04-25T07:41:04.362Z,983.3
2019-04-25T07:42:04.361Z,983.3
2019-04-25T07:43:04.827Z,983.29
2019-04-25T07:44:04.366Z,983.29
2019-04-25T07:45:04.412Z,983.28
2019-04-25T07:46:04.376Z,983.22
2019-04-25T07:47:04.382Z,983.26
2019-04-25T07:48:04.394Z,983.24
2019-04-25T07:49:04.386Z,983.28
2019-04-25T07:50:04.405Z,983.28
2019-04-25T07:51:04.423Z,983.33
2019-04-25T07:52:04.416Z,983.34
2019-04-25T07:53:05.659Z,983.27
2019-04-25T07:54:04.593Z,983.24
2019-04-25T07:55:04.423Z,983.16
2019-04-25T07:56:04.429Z,983.26
2019-04-25T07:57:04.431Z,983.19
2019-04-25T07:58:04.434Z,983.2
2019-04-25T07:59:04.443Z,983.2
2019-04-25T08:00:04.775Z,983.19
2019-04-25T08:01:04.457Z,983.19
2019-04-25T08:02:04.463Z,983.21
2019-04-25T08:03:04.470Z,983.18
2019-04-25T08:04:04.473Z,983.21
2019-04-25T08:05:04.482Z,983.19
2019-04-25T08:06:05.189Z,983.13
2019-04-25T08:07:04.497Z,983.19
2019-04-25T08:08:04.499Z,983.1
2019-04-25T08:09:04.503Z,983.1
2019-04-25T08:10:04.520Z,983.1
2019-04-25T08:11:04.521Z,983.08
2019-04-25T08:12:04.525Z,983.15
2019-04-25T08:13:04.889Z,983.08
2019-04-25T08:14:04.542Z,983.11
2019-04-25T08:15:04.542Z,983.07
2019-04-25T08:16:04.558Z,983.1
2019-04-25T08:17:04.558Z,982.98
2019-04-25T08:18:04.567Z,983.09
2019-04-25T08:19:04.567Z,983.03
2019-04-25T08:20:04.574Z,983.11
2019-04-25T08:21:04.580Z,983.09
2019-04-25T08:22:04.585Z,983.06
2019-04-25T08:23:04.589Z,983.09
2019-04-25T08:24:04.797Z,983.02
2019-04-25T08:25:04.609Z,983.06
2019-04-25T08:26:04.609Z,983.04
2019-04-25T08:27:04.616Z,982.97
2019-04-25T08:28:04.619Z,982.98
2019-04-25T08:29:04.635Z,982.81
2019-04-25T08:30:04.634Z,983.02
2019-04-25T08:31:04.637Z,982.97
2019-04-25T08:32:04.684Z,983.02
2019-04-25T08:33:04.655Z,983.02
2019-04-25T08:34:04.664Z,983.05
2019-04-25T08:35:04.660Z,983.03
2019-04-25T08:36:09.023Z,982.96
2019-04-25T08:37:17.023Z,983.01
2019-04-25T08:38:05.745Z,983.02
2019-04-25T08:39:04.684Z,983
2019-04-25T08:40:04.696Z,982.98
2019-04-25T08:41:04.800Z,982.99
2019-04-25T08:42:04.703Z,982.98
2019-04-25T08:43:04.730Z,982.88
2019-04-25T08:44:04.721Z,982.93
2019-04-25T08:45:04.721Z,982.89
2019-04-25T08:46:04.803Z,982.86
2019-04-25T08:47:04.736Z,982.88
2019-04-25T08:48:04.741Z,982.91
2019-04-25T08:49:06.378Z,982.83
2019-04-25T08:50:04.752Z,982.83
2019-04-25T08:51:04.818Z,982.85
2019-04-25T08:52:04.763Z,982.82
2019-04-25T08:53:04.765Z,982.88
2019-04-25T08:54:04.776Z,982.82
2019-04-25T08:55:04.775Z,982.86
2019-04-25T08:56:04.885Z,982.87
2019-04-25T08:57:04.782Z,982.85
2019-04-25T08:58:04.802Z,982.87
2019-04-25T08:59:07.885Z,982.86
2019-04-25T09:00:06.075Z,982.88
2019-04-25T09:01:04.850Z,982.84
2019-04-25T09:02:04.823Z,982.83
2019-04-25T09:03:05.909Z,982.78
2019-04-25T09:04:05.195Z,982.82
2019-04-25T09:05:04.814Z,982.78
2019-04-25T09:06:04.873Z,982.72
2019-04-25T09:07:05.449Z,982.8
2019-04-25T09:08:04.827Z,982.8
2019-04-25T09:09:07.080Z,982.76
2019-04-25T09:10:04.831Z,982.78
2019-04-25T09:11:04.982Z,982.73
2019-04-25T09:12:04.839Z,982.69
2019-04-25T09:13:04.895Z,982.71
2019-04-25T09:14:04.847Z,982.67
2019-04-25T09:15:04.846Z,982.68
2019-04-25T09:16:04.898Z,982.62
2019-04-25T09:17:04.852Z,982.6
2019-04-25T09:18:04.866Z,982.64
2019-04-25T09:19:04.866Z,982.58
2019-04-25T09:20:04.868Z,982.61
2019-04-25T09:21:04.921Z,982.63
2019-04-25T09:22:04.873Z,982.56
2019-04-25T09:23:05.013Z,982.58
2019-04-25T09:24:04.869Z,982.57
2019-04-25T09:25:04.872Z,982.58
2019-04-25T09:26:05.655Z,982.55
2019-04-25T09:27:04.883Z,982.52
2019-04-25T09:28:04.882Z,982.52
2019-04-25T09:29:15.935Z,982.49
2019-04-25T09:30:05.741Z,982.54
2019-04-25T09:31:04.896Z,982.52
2019-04-25T09:32:04.892Z,982.48
2019-04-25T09:33:04.903Z,982.49
2019-04-25T09:34:04.903Z,982.4
2019-04-25T09:35:04.901Z,982.42
2019-04-25T09:36:06.767Z,982.44
2019-04-25T09:37:04.903Z,982.4
2019-04-25T09:38:04.907Z,982.38
2019-04-25T09:39:04.909Z,982.38
2019-04-25T09:40:04.913Z,982.36
2019-04-25T09:41:05.232Z,982.31
2019-04-25T09:42:04.918Z,982.33
2019-04-25T09:43:04.937Z,982.3
2019-04-25T09:44:04.922Z,982.37
2019-04-25T09:45:04.926Z,982.3
2019-04-25T09:46:04.929Z,982.31
2019-04-25T09:47:04.933Z,982.37
2019-04-25T09:48:04.942Z,982.35
2019-04-25T09:49:04.943Z,982.31
2019-04-25T09:50:04.943Z,982.29
2019-04-25T09:51:05.615Z,982.32
2019-04-25T09:52:04.943Z,982.34
2019-04-25T09:53:04.948Z,982.26
2019-04-25T09:54:04.952Z,982.25
2019-04-25T09:55:04.952Z,982.19
2019-04-25T09:56:05.119Z,982.21
2019-04-25T09:57:04.962Z,982.23
2019-04-25T09:58:04.967Z,982.24
2019-04-25T09:59:05.015Z,982.16
2019-04-25T10:00:05.005Z,982.17
2019-04-25T10:01:05.801Z,982.16
2019-04-25T10:02:04.975Z,982.15
2019-04-25T10:03:04.978Z,982.19
2019-04-25T10:04:04.986Z,982.19
2019-04-25T10:05:05.036Z,982.11
2019-04-25T10:06:04.994Z,982.1
2019-04-25T10:07:04.989Z,982.1
2019-04-25T10:08:04.991Z,982.12
2019-04-25T10:09:05.103Z,982.06
2019-04-25T10:10:04.997Z,982.04
2019-04-25T10:11:05.311Z,982.05
2019-04-25T10:12:05.056Z,982.03
2019-04-25T10:13:06.535Z,982.08
2019-04-25T10:14:05.009Z,982.01
2019-04-25T10:15:05.011Z,982.07
2019-04-25T10:16:05.070Z,982.01
2019-04-25T10:17:05.017Z,981.95
2019-04-25T10:18:05.032Z,981.97
2019-04-25T10:19:05.036Z,981.98
2019-04-25T10:20:05.027Z,981.92
2019-04-25T10:21:05.083Z,981.93
2019-04-25T10:22:05.039Z,981.97
2019-04-25T10:23:05.086Z,981.89
2019-04-25T10:24:05.040Z,981.88
2019-04-25T10:25:05.054Z,981.86
2019-04-25T10:26:05.096Z,981.93
2019-04-25T10:27:05.060Z,981.83
2019-04-25T10:28:05.056Z,981.82
2019-04-25T10:29:05.060Z,981.78
2019-04-25T10:30:16.596Z,981.78
2019-04-25T10:31:05.111Z,981.85
2019-04-25T10:32:05.064Z,981.79
2019-04-25T10:33:05.069Z,981.81
2019-04-25T10:34:05.072Z,981.76
2019-04-25T10:35:05.076Z,981.68
2019-04-25T10:36:05.128Z,981.71
2019-04-25T10:37:05.084Z,981.72
2019-04-25T10:38:05.087Z,981.72
2019-04-25T10:39:10.270Z,981.7
2019-04-25T10:40:05.092Z,981.61
2019-04-25T10:41:05.253Z,981.67
2019-04-25T10:42:05.100Z,981.68
2019-04-25T10:43:05.100Z,981.64
2019-04-25T10:44:05.154Z,981.59
2019-04-25T10:45:05.107Z,981.61
2019-04-25T10:46:05.422Z,981.62
2019-04-25T10:47:05.114Z,981.6
2019-04-25T10:48:05.128Z,981.61
2019-04-25T10:49:05.122Z,981.49
2019-04-25T10:50:05.124Z,981.53
2019-04-25T10:51:05.123Z,981.5
2019-04-25T10:52:05.130Z,981.5
2019-04-25T10:53:05.133Z,981.51
2019-04-25T10:54:05.135Z,981.49
2019-04-25T10:55:05.139Z,981.39
2019-04-25T10:56:05.905Z,981.37
2019-04-25T10:57:06.536Z,981.36
2019-04-25T10:58:05.146Z,981.31
2019-04-25T10:59:05.152Z,981.35
2019-04-25T11:00:08.801Z,981.37
2019-04-25T11:01:05.206Z,981.34
2019-04-25T11:02:05.160Z,981.34
2019-04-25T11:03:05.167Z,981.25
2019-04-25T11:04:05.173Z,981.32
2019-04-25T11:05:05.184Z,981.32
2019-04-25T11:06:05.231Z,981.2
2019-04-25T11:07:05.177Z,981.22
2019-04-25T11:08:05.180Z,981.14
2019-04-25T11:09:05.180Z,981.19
2019-04-25T11:10:05.186Z,981.07
2019-04-25T11:11:05.242Z,981.08
2019-04-25T11:12:05.194Z,981.06
2019-04-25T11:13:05.201Z,981.08
2019-04-25T11:14:07.442Z,981.05
2019-04-25T11:15:05.204Z,981.02
2019-04-25T11:16:05.279Z,981.07
2019-04-25T11:17:05.210Z,981.01
2019-04-25T11:18:05.216Z,981.04
2019-04-25T11:19:05.221Z,981.02
2019-04-25T11:20:05.589Z,980.99
2019-04-25T11:21:06.020Z,980.99
2019-04-25T11:22:05.233Z,980.94
2019-04-25T11:23:05.245Z,980.96
2019-04-25T11:24:05.238Z,980.92
2019-04-25T11:25:05.245Z,981.02
2019-04-25T11:26:05.501Z,980.97
2019-04-25T11:27:05.246Z,980.99
2019-04-25T11:28:05.252Z,981.01
2019-04-25T11:29:05.254Z,981.01
2019-04-25T11:30:10.563Z,980.97
2019-04-25T11:31:05.360Z,980.97
2019-04-25T11:32:05.266Z,981
2019-04-25T11:33:05.269Z,980.97
2019-04-25T11:34:05.272Z,981.04
2019-04-25T11:35:05.278Z,981.03
2019-04-25T11:36:05.381Z,980.96
2019-04-25T11:37:05.825Z,980.96
2019-04-25T11:38:05.592Z,980.99
2019-04-25T11:39:05.291Z,980.92
2019-04-25T11:40:05.298Z,980.9
2019-04-25T11:41:05.449Z,980.95
2019-04-25T11:42:05.306Z,980.94
2019-04-25T11:43:05.313Z,980.89
2019-04-25T11:44:05.313Z,980.95
2019-04-25T11:45:06.004Z,980.95
2019-04-25T11:46:05.378Z,980.96
2019-04-25T11:47:06.859Z,980.97
2019-04-25T11:48:05.398Z,980.99
2019-04-25T11:49:05.333Z,980.97
2019-04-25T11:50:05.331Z,980.92
2019-04-25T11:51:05.387Z,980.89
2019-04-25T11:52:05.376Z,980.87
2019-04-25T11:53:05.352Z,980.89
2019-04-25T11:54:05.358Z,980.92
2019-04-25T11:55:05.357Z,980.85
2019-04-25T11:56:05.458Z,980.89
2019-04-25T11:57:05.365Z,980.88
2019-04-25T11:58:05.364Z,980.87
2019-04-25T11:59:05.368Z,980.91
2019-04-25T12:00:05.371Z,980.91
2019-04-25T12:01:05.438Z,980.89
2019-04-25T12:02:05.381Z,980.81
2019-04-25T12:03:05.383Z,980.83
2019-04-25T12:04:05.387Z,980.75
2019-04-25T12:05:05.391Z,980.71
2019-04-25T12:06:05.513Z,980.77
2019-04-25T12:07:07.077Z,980.78
2019-04-25T12:08:05.404Z,980.66
2019-04-25T12:09:05.407Z,980.61
2019-04-25T12:10:05.409Z,980.67
2019-04-25T12:11:05.944Z,980.63
2019-04-25T12:12:05.701Z,980.69
2019-04-25T12:13:05.426Z,980.63
2019-04-25T12:14:05.430Z,980.69
2019-04-25T12:15:05.432Z,980.57
2019-04-25T12:16:05.435Z,980.58
2019-04-25T12:17:05.440Z,980.51
2019-04-25T12:18:05.445Z,980.58
2019-04-25T12:19:05.446Z,980.72
2019-04-25T12:20:05.457Z,980.61
2019-04-25T12:21:05.521Z,980.54
2019-04-25T12:22:05.458Z,980.56
2019-04-25T12:23:10.110Z,980.5
2019-04-25T12:24:05.924Z,980.64
2019-04-25T12:25:05.475Z,980.5
2019-04-25T12:26:05.491Z,980.41
2019-04-25T12:27:05.477Z,980.47
2019-04-25T12:28:05.744Z,980.49
2019-04-25T12:29:05.508Z,980.42
2019-04-25T12:30:05.636Z,980.4
2019-04-25T12:31:05.493Z,980.43